Time;durP1;ratioP1;P1;durP2;ratioP2;P2;SDS_P1;SDS_P2;PMS_P1;PMS_P2;Temp;Humidity;BMP_temperature;BMP_pressure;BME280_temperature;BME280_humidity;BME280_pressure;Samples;Min_cycle;Max_cycle;Signal;HPM_P1;HPM_P2
2023/04/24 00:01:16;;;;;;;31.50;23.08;;;;;;;12.55;91.94;100097.28;5040453;28;20040;-69
2023/04/24 00:03:42;;;;;;;32.50;23.10;;;;;;;12.40;92.04;100067.19;5038748;28;20213;-65
2023/04/24 00:06:08;;;;;;;29.92;24.10;;;;;;;12.62;91.65;100089.09;5037954;28;20103;-65
2023/04/24 00:08:34;;;;;;;30.02;23.88;;;;;;;12.55;91.52;100080.25;5038907;28;20025;-65
2023/04/24 00:11:00;;;;;;;31.00;23.63;;;;;;;12.60;91.64;100093.88;5039654;28;20022;-65
2023/04/24 00:13:26;;;;;;;30.95;22.92;;;;;;;12.64;91.53;100089.66;5039036;28;20033;-66
2023/04/24 00:15:51;;;;;;;28.10;22.60;;;;;;;12.56;91.32;100074.63;5039181;28;20071;-65
2023/04/24 00:18:17;;;;;;;31.90;23.17;;;;;;;12.63;91.37;100086.16;5039890;28;20033;-65
2023/04/24 00:20:43;;;;;;;31.38;23.00;;;;;;;12.65;91.45;100086.75;5040413;28;20116;-80
2023/04/24 00:23:09;;;;;;;27.98;22.88;;;;;;;12.69;91.07;100089.81;5037043;28;20040;-65
2023/04/24 00:25:34;;;;;;;32.42;24.27;;;;;;;12.66;91.10;100091.09;5036077;28;20384;-64
2023/04/24 00:28:00;;;;;;;31.95;22.45;;;;;;;12.61;90.95;100082.03;5035186;28;20111;-66
2023/04/24 00:30:25;;;;;;;32.63;23.52;;;;;;;12.59;91.32;100090.38;5038624;28;20032;-67
2023/04/24 00:32:51;;;;;;;34.65;24.92;;;;;;;12.50;91.63;100080.94;5039887;28;20404;-66
2023/04/24 00:35:16;;;;;;;27.77;23.92;;;;;;;12.47;91.46;100086.78;5038207;28;20044;-65
2023/04/24 00:37:42;;;;;;;32.08;24.45;;;;;;;12.33;91.35;100071.84;5038567;28;20148;-66
2023/04/24 00:40:07;;;;;;;29.95;25.15;;;;;;;12.46;91.63;100082.47;5022562;28;20107;-65
2023/04/24 00:42:33;;;;;;;30.20;24.20;;;;;;;12.43;91.20;100088.31;5039717;28;20169;-65
2023/04/24 00:45:00;;;;;;;30.30;24.27;;;;;;;12.43;91.62;100088.31;5038676;28;20033;-65
2023/04/24 00:47:26;;;;;;;33.00;24.60;;;;;;;12.39;91.47;100079.03;5035822;28;20087;-65
2023/04/24 00:49:52;;;;;;;32.10;24.92;;;;;;;12.38;91.65;100086.31;5039521;28;20036;-65
2023/04/24 00:52:17;;;;;;;32.40;25.30;;;;;;;12.40;91.52;100091.47;5038238;28;20026;-65
2023/04/24 00:54:46;;;;;;;32.15;25.88;;;;;;;12.44;91.72;100084.56;5039708;28;20029;-65
2023/04/24 00:57:15;;;;;;;34.83;26.80;;;;;;;12.48;91.67;100082.22;5039080;28;20040;-65
2023/04/24 00:59:41;;;;;;;37.15;26.05;;;;;;;12.43;91.74;100082.91;5037928;28;20035;-65
2023/04/24 01:02:08;;;;;;;41.95;27.73;;;;;;;12.44;92.14;100079.16;5039419;28;20026;-65
2023/04/24 01:04:34;;;;;;;37.97;27.38;;;;;;;12.43;92.44;100078.34;5039283;28;20053;-65
2023/04/24 01:07:00;;;;;;;35.40;26.77;;;;;;;12.46;92.27;100082.47;5037779;28;20033;-65
2023/04/24 01:09:26;;;;;;;35.67;27.27;;;;;;;12.48;92.40;100069.53;5040353;28;20036;-78
2023/04/24 01:11:52;;;;;;;34.55;26.60;;;;;;;12.48;92.41;100080.34;5039833;28;20030;-64
2023/04/24 01:14:18;;;;;;;34.58;25.40;;;;;;;12.42;92.65;100084.78;5036992;28;20075;-65
2023/04/24 01:16:43;;;;;;;32.17;25.40;;;;;;;12.44;92.75;100079.16;5037916;28;20104;-65
2023/04/24 01:19:11;;;;;;;34.15;25.48;;;;;;;12.44;92.68;100079.97;5038497;28;20044;-65
2023/04/24 01:21:38;;;;;;;32.97;26.10;;;;;;;12.45;92.56;100075.41;5038848;28;20033;-65
2023/04/24 01:24:05;;;;;;;33.67;25.92;;;;;;;12.42;93.07;100076.69;5038572;28;20022;-65
2023/04/24 01:26:30;;;;;;;33.25;25.70;;;;;;;12.37;93.22;100075.72;5038823;28;20017;-65
2023/04/24 01:28:56;;;;;;;33.28;25.27;;;;;;;12.48;93.02;100074.94;5037074;28;20568;-65
2023/04/24 01:31:22;;;;;;;33.75;24.83;;;;;;;12.44;93.26;100069.19;5036901;28;20711;-65
2023/04/24 01:33:48;;;;;;;36.88;27.15;;;;;;;12.37;93.29;100051.44;5020757;28;20025;-65
2023/04/24 01:36:14;;;;;;;30.55;24.27;;;;;;;12.36;93.39;100049.81;5037844;28;20057;-66
2023/04/24 01:38:39;;;;;;;35.15;25.55;;;;;;;12.49;93.04;100068.50;5036759;28;20026;-65
2023/04/24 01:41:05;;;;;;;32.25;24.88;;;;;;;12.52;93.15;100072.63;5037298;28;20029;-65
2023/04/24 01:43:31;;;;;;;34.30;25.02;;;;;;;12.51;93.36;100071.78;5038166;28;20032;-65
2023/04/24 01:45:57;;;;;;;31.08;23.77;;;;;;;12.48;93.20;100068.72;5037415;28;20034;-65
2023/04/24 01:48:22;;;;;;;32.08;23.45;;;;;;;12.49;93.37;100062.28;5036495;28;20038;-67
2023/04/24 01:50:48;;;;;;;31.63;23.42;;;;;;;12.53;93.00;100071.56;5036195;28;20037;-67
2023/04/24 01:53:13;;;;;;;28.52;22.75;;;;;;;12.49;93.04;100065.81;5035886;28;20088;-65
2023/04/24 01:55:39;;;;;;;27.75;23.17;;;;;;;12.40;92.91;100046.41;5037496;28;20531;-65
2023/04/24 01:58:04;;;;;;;30.17;24.00;;;;;;;12.49;93.13;100056.91;5041913;28;20021;-77
2023/04/24 02:00:30;;;;;;;27.42;22.92;;;;;;;12.47;92.96;100059.81;5039872;28;20049;-78
2023/04/24 02:02:55;;;;;;;29.42;22.67;;;;;;;12.52;92.88;100062.66;5016616;28;20063;-65
2023/04/24 02:05:21;;;;;;;28.95;22.92;;;;;;;12.49;93.12;100057.72;5039316;28;20021;-82
2023/04/24 02:07:46;;;;;;;29.42;22.55;;;;;;;12.52;92.89;100057.25;5040445;28;20124;-83
2023/04/24 02:10:12;;;;;;;28.42;21.88;;;;;;;12.50;93.06;100056.66;5037670;28;20041;-67
2023/04/24 02:12:37;;;;;;;28.05;22.42;;;;;;;12.49;92.83;100060.41;5036636;28;20032;-66
2023/04/24 02:15:03;;;;;;;28.15;21.92;;;;;;;12.49;92.86;100055.00;5038752;28;20021;-65
2023/04/24 02:17:30;;;;;;;29.73;21.63;;;;;;;12.46;92.98;100047.38;5037625;28;20041;-65
2023/04/24 02:19:56;;;;;;;27.40;21.23;;;;;;;12.34;92.86;100019.53;5036627;28;20055;-66
2023/04/24 02:22:21;;;;;;;27.85;20.90;;;;;;;12.42;92.65;100032.72;5038635;28;20484;-65
2023/04/24 02:24:47;;;;;;;27.08;21.52;;;;;;;12.39;92.77;100027.78;5036928;28;20037;-65
2023/04/24 02:27:13;;;;;;;29.92;21.80;;;;;;;12.37;92.45;100027.97;5020949;28;20037;-65
2023/04/24 02:29:38;;;;;;;28.35;21.45;;;;;;;12.30;92.55;100018.34;5037105;28;20076;-65
2023/04/24 02:32:03;;;;;;;27.10;21.73;;;;;;;12.32;92.57;100029.75;5037853;28;20032;-66
2023/04/24 02:34:29;;;;;;;25.25;20.67;;;;;;;12.29;92.41;100025.63;5037366;28;20027;-65
2023/04/24 02:36:54;;;;;;;27.98;21.38;;;;;;;12.25;92.22;100026.28;5037341;28;20049;-65
2023/04/24 02:39:20;;;;;;;25.98;21.42;;;;;;;12.27;92.20;100035.00;5020224;28;20060;-65
2023/04/24 02:41:45;;;;;;;32.45;21.45;;;;;;;12.28;92.20;100037.44;5037894;28;20029;-65
2023/04/24 02:44:11;;;;;;;25.40;21.25;;;;;;;12.28;92.04;100033.94;5035906;28;20029;-65
2023/04/24 02:46:36;;;;;;;30.60;22.02;;;;;;;12.30;91.82;100034.53;5036316;28;20052;-66
2023/04/24 02:49:02;;;;;;;26.98;21.05;;;;;;;12.28;92.11;100031.22;5035868;28;20033;-65
2023/04/24 02:51:28;;;;;;;25.35;20.77;;;;;;;12.30;91.96;100024.56;5036784;28;20045;-65
2023/04/24 02:53:54;;;;;;;27.27;20.95;;;;;;;12.31;91.93;100025.38;5035450;28;20037;-65
2023/04/24 02:56:19;;;;;;;27.17;19.88;;;;;;;12.23;91.75;100005.78;5037187;28;20029;-65
2023/04/24 02:58:45;;;;;;;25.30;20.42;;;;;;;12.25;92.09;100010.09;5036856;28;20061;-65
2023/04/24 03:01:10;;;;;;;25.17;19.92;;;;;;;12.29;91.87;100014.84;5035422;28;20496;-65
2023/04/24 03:03:37;;;;;;;26.50;20.42;;;;;;;12.31;91.75;100014.59;5036871;28;20025;-64
2023/04/24 03:06:05;;;;;;;23.73;19.70;;;;;;;12.29;91.44;100011.31;5037216;28;20061;-65
2023/04/24 03:08:31;;;;;;;25.63;20.05;;;;;;;12.27;91.48;100014.22;5037141;28;20029;-65
2023/04/24 03:10:57;;;;;;;26.85;18.98;;;;;;;12.29;91.38;100008.63;5035544;28;20124;-66
2023/04/24 03:13:22;;;;;;;25.10;19.63;;;;;;;12.26;91.41;100001.00;5035303;28;20120;-65
2023/04/24 03:15:48;;;;;;;25.88;19.33;;;;;;;12.23;91.30;100007.66;5037540;28;20025;-65
2023/04/24 03:18:13;;;;;;;23.98;19.30;;;;;;;12.19;91.27;100006.47;5035707;28;20107;-66
2023/04/24 03:20:39;;;;;;;22.52;19.08;;;;;;;12.10;91.25;99995.19;5036836;28;20079;-65
2023/04/24 03:23:04;;;;;;;21.95;18.42;;;;;;;12.14;91.29;100003.63;5002843;28;20048;-65
2023/04/24 03:25:29;;;;;;;23.55;19.17;;;;;;;11.96;91.09;99974.84;5038127;28;20017;-65
2023/04/24 03:27:55;;;;;;;25.85;19.27;;;;;;;12.10;91.30;100003.28;5037846;28;20044;-66
2023/04/24 03:30:20;;;;;;;22.92;19.23;;;;;;;12.04;91.31;99996.09;5034720;28;20034;-66
2023/04/24 03:32:46;;;;;;;25.15;19.55;;;;;;;12.08;90.97;99994.56;5036035;28;20042;-65
2023/04/24 03:35:12;;;;;;;26.05;19.20;;;;;;;12.07;90.58;99992.94;5037358;28;20076;-65
2023/04/24 03:37:37;;;;;;;26.48;19.42;;;;;;;12.09;90.64;99985.44;5037172;28;20073;-65
2023/04/24 03:40:03;;;;;;;23.20;18.33;;;;;;;12.06;90.61;99991.31;5036116;28;20040;-65
2023/04/24 03:42:29;;;;;;;23.02;18.35;;;;;;;12.07;90.40;99992.13;5036509;28;20048;-66
2023/04/24 03:44:54;;;;;;;26.05;18.60;;;;;;;12.02;90.56;99979.34;5036089;28;20392;-64
2023/04/24 03:47:20;;;;;;;26.23;18.73;;;;;;;12.02;90.44;99973.94;5031970;28;20129;-66
2023/04/24 03:49:45;;;;;;;22.25;18.45;;;;;;;12.00;90.34;99973.34;5032986;28;20057;-65
2023/04/24 03:52:10;;;;;;;23.58;18.70;;;;;;;12.04;90.23;99981.78;5033954;28;20052;-65
2023/04/24 03:54:36;;;;;;;22.30;18.90;;;;;;;12.09;89.84;99988.16;5017817;28;20116;-65
2023/04/24 03:57:01;;;;;;;22.15;17.90;;;;;;;12.13;89.62;99983.13;5035556;28;20037;-64
2023/04/24 03:59:27;;;;;;;21.98;17.63;;;;;;;12.11;89.54;99974.41;5035245;28;20029;-65
2023/04/24 04:01:52;;;;;;;23.30;18.02;;;;;;;12.05;89.18;99949.19;5035639;28;20046;-65
2023/04/24 04:04:18;;;;;;;22.90;17.77;;;;;;;12.23;89.05;99973.41;5018199;28;20378;-64
2023/04/24 04:06:44;;;;;;;22.83;17.40;;;;;;;12.35;88.43;99978.84;5035487;28;20040;-65
2023/04/24 04:09:09;;;;;;;21.75;17.23;;;;;;;12.40;88.27;99976.25;5034498;28;20048;-65
2023/04/24 04:11:35;;;;;;;24.30;18.00;;;;;;;12.48;87.85;99977.78;5035956;28;20033;-65
2023/04/24 04:14:00;;;;;;;21.23;17.23;;;;;;;12.50;87.69;99973.00;5034527;28;20058;-65
2023/04/24 04:16:26;;;;;;;24.83;18.38;;;;;;;12.48;87.19;99958.91;5036905;28;20542;-65
2023/04/24 04:18:51;;;;;;;23.02;16.35;;;;;;;12.81;86.46;99977.25;5018292;28;20029;-65
2023/04/24 04:21:17;;;;;;;21.50;17.50;;;;;;;12.98;85.30;99966.59;5035690;28;20025;-66
2023/04/24 04:23:42;;;;;;;22.63;17.85;;;;;;;12.74;86.33;99970.31;5038690;28;20074;-66
2023/04/24 04:26:07;;;;;;;23.85;16.40;;;;;;;12.69;86.44;99962.94;5040466;28;20033;-66
2023/04/24 04:28:34;;;;;;;21.10;16.23;;;;;;;12.58;87.02;99969.97;5037115;28;20105;-66
2023/04/24 04:31:00;;;;;;;28.20;16.52;;;;;;;12.58;86.82;99967.28;5038162;28;20102;-66
2023/04/24 04:33:26;;;;;;;21.42;15.98;;;;;;;12.56;86.85;99968.56;5038561;28;20032;-66
2023/04/24 04:35:52;;;;;;;21.10;16.30;;;;;;;12.66;86.15;99968.81;5040571;28;20057;-66
2023/04/24 04:38:19;;;;;;;21.60;15.27;;;;;;;12.70;86.25;99965.41;5043689;28;20032;-65
2023/04/24 04:40:45;;;;;;;22.23;16.02;;;;;;;12.70;86.16;99970.78;5042407;28;20091;-66
2023/04/24 04:43:13;;;;;;;24.52;15.90;;;;;;;12.73;85.87;99971.41;5041415;28;20030;-66
2023/04/24 04:45:40;;;;;;;23.88;15.63;;;;;;;12.62;85.72;99963.06;5041246;28;20025;-67
2023/04/24 04:48:07;;;;;;;18.88;15.40;;;;;;;12.67;85.86;99973.13;5039424;28;20036;-66
2023/04/24 04:50:32;;;;;;;23.10;15.20;;;;;;;12.61;86.00;99974.88;5040119;28;20428;-66
2023/04/24 04:52:58;;;;;;;21.02;14.43;;;;;;;12.66;85.81;99975.03;5042042;28;20021;-65
2023/04/24 04:55:23;;;;;;;22.88;14.85;;;;;;;12.63;85.82;99970.09;5025007;28;20033;-66
2023/04/24 04:57:49;;;;;;;20.15;15.18;;;;;;;12.65;85.66;99964.47;5040935;28;20447;-65
2023/04/24 05:00:15;;;;;;;19.88;14.32;;;;;;;12.45;85.68;99940.50;5039876;28;20030;-71
2023/04/24 05:02:41;;;;;;;22.70;13.82;;;;;;;12.58;85.71;99967.28;5038673;28;20030;-65
2023/04/24 05:05:07;;;;;;;17.63;14.02;;;;;;;12.73;85.19;99958.72;5039674;28;20121;-66
2023/04/24 05:07:33;;;;;;;20.95;14.43;;;;;;;12.79;84.70;99962.38;5042212;28;20050;-67
2023/04/24 05:09:58;;;;;;;20.25;13.82;;;;;;;12.80;84.53;99959.41;5038607;28;20427;-67
2023/04/24 05:12:24;;;;;;;21.27;13.50;;;;;;;12.79;84.55;99954.25;5035558;28;20017;-66
2023/04/24 05:14:50;;;;;;;18.00;13.90;;;;;;;12.85;84.03;99953.34;5020458;28;20029;-66
2023/04/24 05:17:16;;;;;;;18.20;13.32;;;;;;;12.84;84.34;99951.66;5036653;28;20036;-67
2023/04/24 05:19:42;;;;;;;17.95;14.00;;;;;;;12.93;83.80;99961.88;5038734;28;20049;-65
2023/04/24 05:22:07;;;;;;;19.55;13.10;;;;;;;12.97;83.68;99956.00;5038943;28;20095;-67
2023/04/24 05:24:33;;;;;;;18.27;13.40;;;;;;;12.85;83.97;99946.06;5019820;28;20124;-67
2023/04/24 05:26:59;;;;;;;19.20;14.02;;;;;;;12.90;84.06;99950.72;5039319;28;20092;-68
2023/04/24 05:29:26;;;;;;;20.30;13.30;;;;;;;12.95;83.79;99950.88;5055118;28;20030;-66
2023/04/24 05:31:52;;;;;;;24.70;13.05;;;;;;;13.01;83.71;99957.19;5039647;28;20025;-65
2023/04/24 05:34:17;;;;;;;22.20;13.00;;;;;;;13.05;83.27;99955.66;5038559;28;20085;-66
2023/04/24 05:36:43;;;;;;;20.25;13.85;;;;;;;13.09;83.02;99957.66;5054625;28;20091;-66
2023/04/24 05:39:09;;;;;;;20.88;13.50;;;;;;;12.94;83.57;99960.81;5038654;28;20333;-66
2023/04/24 05:41:34;;;;;;;24.88;14.20;;;;;;;13.07;82.90;99962.47;5037951;28;20441;-65
2023/04/24 05:44:00;;;;;;;24.63;13.52;;;;;;;13.10;83.04;99959.28;5037289;28;20032;-73
2023/04/24 05:46:25;;;;;;;23.20;13.07;;;;;;;13.09;83.01;99965.75;5038779;28;20025;-66
2023/04/24 05:48:51;;;;;;;19.83;12.82;;;;;;;13.11;82.97;99949.28;5038674;28;20499;-65
2023/04/24 05:51:16;;;;;;;22.08;12.88;;;;;;;13.16;82.75;99952.94;5019533;28;20034;-66
2023/04/24 05:53:42;;;;;;;20.50;13.45;;;;;;;13.16;82.22;99950.25;5020298;28;20025;-66
2023/04/24 05:56:07;;;;;;;18.63;12.23;;;;;;;13.09;82.60;99954.13;5038196;28;20065;-67
2023/04/24 05:58:32;;;;;;;25.27;13.30;;;;;;;13.19;82.03;99950.84;5039734;28;20077;-67
2023/04/24 06:01:00;;;;;;;20.73;12.80;;;;;;;13.33;81.84;99958.47;5053308;28;20029;-65
2023/04/24 06:03:27;;;;;;;21.20;12.55;;;;;;;13.35;81.65;99952.84;5023431;28;20089;-66
2023/04/24 06:05:52;;;;;;;18.63;12.30;;;;;;;13.44;81.41;99955.97;5058329;28;20029;-66
2023/04/24 06:08:17;;;;;;;19.45;12.10;;;;;;;13.37;80.74;99942.59;5057411;28;20040;-66
2023/04/24 06:10:43;;;;;;;23.40;12.32;;;;;;;13.40;80.90;99952.94;5040596;28;20037;-67
2023/04/24 06:13:08;;;;;;;17.58;11.65;;;;;;;13.31;80.73;99938.13;5040927;28;20029;-68
2023/04/24 06:15:34;;;;;;;21.83;11.55;;;;;;;13.36;80.77;99943.66;5040644;28;20416;-66
2023/04/24 06:17:59;;;;;;;21.55;12.40;;;;;;;13.25;80.69;99928.31;5039950;28;20461;-65
2023/04/24 06:20:25;;;;;;;17.77;11.82;;;;;;;13.36;80.23;99938.25;5054528;28;20057;-73
2023/04/24 06:22:50;;;;;;;14.77;10.85;;;;;;;13.49;80.04;99946.09;5037109;28;20018;-66
2023/04/24 06:25:16;;;;;;;16.90;12.27;;;;;;;13.52;79.75;99945.63;5039373;28;20080;-66
2023/04/24 06:27:41;;;;;;;17.85;12.23;;;;;;;13.45;79.44;99944.94;5043983;28;20060;-66
2023/04/24 06:30:08;;;;;;;23.17;12.00;;;;;;;13.54;79.31;99939.97;5038181;28;20037;-66
2023/04/24 06:32:33;;;;;;;21.13;11.90;;;;;;;13.48;79.53;99939.06;5038069;28;20124;-66
2023/04/24 06:34:59;;;;;;;15.35;11.45;;;;;;;13.58;78.99;99944.66;5038581;28;20060;-69
2023/04/24 06:37:24;;;;;;;16.55;11.05;;;;;;;13.67;77.98;99946.97;5038420;28;20057;-66
2023/04/24 06:39:49;;;;;;;13.85;11.38;;;;;;;13.89;77.41;99955.25;5037605;28;20079;-66
2023/04/24 06:42:15;;;;;;;17.67;11.40;;;;;;;13.97;76.68;99958.41;5038065;28;20044;-66
2023/04/24 06:44:40;;;;;;;14.18;11.00;;;;;;;14.03;76.39;99952.00;5037800;28;20033;-66
2023/04/24 06:47:13;;;;;;;14.07;10.38;;;;;;;14.25;75.90;99951.31;5034503;28;20029;-66
2023/04/24 06:49:39;;;;;;;14.90;10.95;;;;;;;14.19;75.85;99939.56;5039450;28;20044;-73
2023/04/24 06:52:06;;;;;;;15.48;11.55;;;;;;;14.40;75.46;99959.69;5040471;28;20017;-67
2023/04/24 06:54:32;;;;;;;16.27;10.05;;;;;;;14.46;75.05;99960.59;5036693;28;20026;-65
2023/04/24 06:56:58;;;;;;;14.18;10.25;;;;;;;14.62;74.70;99959.00;5019583;28;20025;-65
2023/04/24 06:59:24;;;;;;;13.48;10.48;;;;;;;14.65;74.58;99967.44;5036923;28;20033;-67
2023/04/24 07:01:50;;;;;;;13.52;9.93;;;;;;;14.73;74.37;99966.19;5036121;28;20242;-69
2023/04/24 07:04:17;;;;;;;13.07;9.98;;;;;;;14.86;73.93;99975.88;5019535;28;20033;-66
2023/04/24 07:06:43;;;;;;;13.98;9.82;;;;;;;14.91;73.36;99982.19;5037129;28;20524;-65
2023/04/24 07:09:09;;;;;;;13.48;10.45;;;;;;;14.92;73.36;99970.28;5053069;28;20228;-67
2023/04/24 07:11:35;;;;;;;13.45;10.60;;;;;;;14.86;73.22;99968.56;5037557;28;20123;-65
2023/04/24 07:14:00;;;;;;;15.38;10.93;;;;;;;14.83;74.48;99974.47;5038875;28;20135;-66
2023/04/24 07:16:26;;;;;;;12.80;10.95;;;;;;;14.71;75.39;99984.59;5045265;28;20219;-66
2023/04/24 07:18:52;;;;;;;12.98;11.57;;;;;;;14.44;76.70;99984.41;5036495;28;20033;-66
2023/04/24 07:21:17;;;;;;;12.85;11.35;;;;;;;14.32;76.91;99973.63;5035010;28;20065;-67
2023/04/24 07:23:43;;;;;;;14.88;12.48;;;;;;;14.15;78.55;99987.13;5036395;28;20030;-65
2023/04/24 07:26:08;;;;;;;14.98;12.65;;;;;;;14.13;78.53;99989.25;5043381;28;20566;-66
2023/04/24 07:28:33;;;;;;;16.75;13.18;;;;;;;13.98;79.05;99968.16;5045141;28;20407;-66
2023/04/24 07:30:59;;;;;;;15.00;13.40;;;;;;;14.01;79.94;99986.59;5043980;28;20021;-65
2023/04/24 07:33:25;;;;;;;15.27;13.38;;;;;;;13.98;80.50;100003.31;5042284;28;20042;-67
2023/04/24 07:35:51;;;;;;;14.80;13.05;;;;;;;13.81;80.79;99976.22;5045255;28;20133;-65
2023/04/24 07:38:20;;;;;;;16.77;13.57;;;;;;;13.88;81.57;99994.19;5042558;28;20041;-78
2023/04/24 07:40:46;;;;;;;17.88;13.88;;;;;;;13.89;81.85;99995.81;5055775;28;20029;-78
2023/04/24 07:43:11;;;;;;;15.75;14.05;;;;;;;13.79;82.19;99993.72;5036023;28;20451;-66
2023/04/24 07:45:37;;;;;;;16.90;14.23;;;;;;;13.89;82.44;99996.63;5040890;28;20114;-66
2023/04/24 07:48:03;;;;;;;17.42;14.52;;;;;;;13.79;82.89;99994.56;5042740;28;20057;-67
2023/04/24 07:50:28;;;;;;;18.08;15.48;;;;;;;13.67;83.64;100001.88;5043601;28;20512;-66
2023/04/24 07:52:54;;;;;;;17.33;14.75;;;;;;;13.65;84.10;100004.00;5041188;28;20045;-66
2023/04/24 07:55:20;;;;;;;18.42;14.27;;;;;;;13.61;84.53;100006.38;5056386;28;20029;-66
2023/04/24 07:57:45;;;;;;;17.88;14.73;;;;;;;13.47;85.13;100006.84;5039899;28;20033;-65
2023/04/24 08:00:11;;;;;;;18.30;14.90;;;;;;;13.40;86.17;99999.69;5025338;28;20037;-66
2023/04/24 08:02:37;;;;;;;17.73;14.75;;;;;;;13.40;85.83;100004.28;5045424;28;20108;-69
2023/04/24 08:05:03;;;;;;;18.05;15.52;;;;;;;13.42;86.01;99999.47;5045169;28;20634;-66
2023/04/24 08:07:29;;;;;;;18.35;15.02;;;;;;;13.35;86.36;100005.00;5045269;28;20086;-66
2023/04/24 08:09:54;;;;;;;17.73;15.18;;;;;;;13.20;86.81;99993.00;5046157;28;20023;-68
2023/04/24 08:12:19;;;;;;;20.08;16.33;;;;;;;13.30;86.56;99998.66;5044372;28;20175;-66
2023/04/24 08:14:45;;;;;;;17.27;15.43;;;;;;;13.23;86.53;99985.22;5026592;28;20033;-65
2023/04/24 08:17:10;;;;;;;20.17;16.67;;;;;;;13.05;87.25;99972.69;5043882;28;20030;-65
2023/04/24 08:19:36;;;;;;;20.95;16.00;;;;;;;13.16;87.64;99981.84;5047735;28;20009;-66
2023/04/24 08:22:02;;;;;;;20.40;16.25;;;;;;;13.14;87.52;99970.44;5047688;28;20025;-70
2023/04/24 08:24:27;;;;;;;19.17;15.10;;;;;;;12.89;88.96;99973.41;5044074;28;20041;-67
2023/04/24 08:26:53;;;;;;;20.88;16.50;;;;;;;12.86;89.40;99973.88;5045998;28;20048;-66
2023/04/24 08:29:20;;;;;;;22.08;16.25;;;;;;;12.42;91.44;99939.09;5045650;28;20103;-70
2023/04/24 08:31:46;;;;;;;21.75;15.75;;;;;;;12.31;93.61;99956.06;5047665;28;20025;-69
2023/04/24 08:34:11;;;;;;;20.80;16.85;;;;;;;12.19;94.48;99941.75;5045392;28;20037;-65
2023/04/24 08:36:37;;;;;;;19.73;16.10;;;;;;;12.43;92.36;99945.31;5042742;28;20073;-66
2023/04/24 08:39:03;;;;;;;20.17;16.42;;;;;;;12.61;91.50;99947.91;5037646;28;20047;-66
2023/04/24 08:41:30;;;;;;;20.27;16.00;;;;;;;12.63;91.23;99953.91;5038903;28;20507;-65
2023/04/24 08:43:57;;;;;;;21.25;15.75;;;;;;;12.63;91.30;99948.50;5044245;28;20029;-65
2023/04/24 08:46:24;;;;;;;21.98;16.52;;;;;;;12.68;91.26;99951.34;5026216;28;20041;-66
2023/04/24 08:48:50;;;;;;;19.80;16.23;;;;;;;12.51;92.80;99955.75;5037717;28;20116;-64
2023/04/24 08:51:16;;;;;;;19.90;16.05;;;;;;;12.34;93.67;99933.19;5041194;28;20064;-66
2023/04/24 08:53:43;;;;;;;19.52;16.55;;;;;;;12.82;91.46;99940.31;5036409;28;20040;-66
2023/04/24 08:56:09;;;;;;;20.88;15.90;;;;;;;12.84;91.50;99930.06;5041323;28;20044;-66
2023/04/24 08:58:35;;;;;;;19.50;16.00;;;;;;;12.82;92.56;99932.19;5044434;28;20033;-66
2023/04/24 09:01:01;;;;;;;19.60;15.30;;;;;;;12.77;92.99;99930.19;5043830;28;20026;-66
2023/04/24 09:03:28;;;;;;;18.08;15.82;;;;;;;12.81;92.46;99922.44;5027857;28;20079;-67
2023/04/24 09:05:55;;;;;;;18.40;14.85;;;;;;;12.94;91.66;99920.31;5045506;28;20029;-66
2023/04/24 09:08:24;;;;;;;16.95;13.60;;;;;;;12.69;92.65;99917.06;5048331;28;20052;-65
2023/04/24 09:10:49;;;;;;;16.38;12.65;;;;;;;12.15;94.64;99903.63;5044452;28;20025;-70
2023/04/24 09:13:16;;;;;;;15.32;12.25;;;;;;;12.33;93.87;99924.28;5044650;28;20094;-66
2023/04/24 09:15:42;;;;;;;15.60;11.75;;;;;;;12.41;93.41;99928.53;5046716;28;20029;-66
2023/04/24 09:18:08;;;;;;;17.40;12.50;;;;;;;12.53;92.47;99921.25;5047025;28;20036;-66
2023/04/24 09:20:35;;;;;;;13.65;10.85;;;;;;;12.44;92.72;99917.25;5047963;28;20021;-67
2023/04/24 09:23:01;;;;;;;15.25;11.45;;;;;;;12.52;91.75;99913.41;5044133;28;20452;-66
2023/04/24 09:25:35;;;;;;;14.52;11.25;;;;;;;12.55;91.70;99911.06;5048184;28;20127;-66
2023/04/24 09:28:03;;;;;;;16.75;10.60;;;;;;;12.22;93.19;99915.13;5047729;28;20033;-66
2023/04/24 09:30:29;;;;;;;17.77;13.40;;;;;;;12.20;91.97;99901.03;5047606;28;20076;-67
2023/04/24 09:33:15;;;;;;;16.92;12.48;;;;;;;12.21;92.00;99918.03;5032071;28;20052;-66
2023/04/24 09:35:51;;;;;;;11.98;9.35;;;;;;;12.12;92.13;99909.50;5042581;28;20029;-66
2023/04/24 09:38:16;;;;;;;9.63;6.90;;;;;;;12.02;92.20;99903.84;5041653;28;20045;-66
2023/04/24 09:40:42;;;;;;;8.90;7.35;;;;;;;12.02;91.15;99882.25;5044524;28;20089;-65
2023/04/24 09:43:10;;;;;;;10.45;7.70;;;;;;;12.29;90.62;99903.41;5044859;28;20025;-66
2023/04/24 09:45:39;;;;;;;11.80;7.25;;;;;;;12.38;89.50;99905.53;5046971;28;20037;-66
2023/04/24 09:48:06;;;;;;;9.05;6.85;;;;;;;12.58;88.92;99897.13;5045384;28;20025;-66
2023/04/24 09:50:32;;;;;;;12.38;6.82;;;;;;;12.34;90.07;99892.75;5046958;28;20040;-66
2023/04/24 09:53:05;;;;;;;9.60;6.80;;;;;;;12.37;90.04;99878.78;5046710;28;20025;-66
2023/04/24 09:55:31;;;;;;;10.95;6.85;;;;;;;12.33;89.71;99883.00;5046234;28;20029;-67
2023/04/24 09:58:01;;;;;;;11.60;6.50;;;;;;;11.94;90.22;99859.13;5038765;28;20401;-65
2023/04/24 10:00:29;;;;;;;8.68;6.68;;;;;;;12.43;89.20;99869.75;5038154;28;20032;-66
2023/04/24 10:03:05;;;;;;;8.65;6.85;;;;;;;12.11;88.81;99835.00;5038203;28;20045;-66
2023/04/24 10:05:32;;;;;;;9.45;6.82;;;;;;;12.44;88.62;99856.03;5034497;28;20030;-67
2023/04/24 10:08:18;;;;;;;9.27;7.50;;;;;;;12.88;87.38;99851.09;5036249;28;20033;-66
2023/04/24 10:10:45;;;;;;;11.50;7.47;;;;;;;13.00;86.02;99853.75;5056989;28;20132;-67
2023/04/24 10:13:12;;;;;;;7.97;7.18;;;;;;;12.96;86.01;99814.78;5042463;28;20055;-72
2023/04/24 10:15:38;;;;;;;8.48;6.25;;;;;;;12.82;87.29;99857.44;5043729;28;20175;-72
2023/04/24 10:18:06;;;;;;;8.93;7.38;;;;;;;13.26;nan;99857.00;5038600;28;20037;-66
2023/04/24 10:20:32;;;;;;;10.13;7.43;;;;;;;12.92;86.35;99854.94;5033847;28;20033;-66
2023/04/24 10:22:59;;;;;;;10.65;7.97;;;;;;;13.05;86.83;99842.25;5037256;28;20029;-67
2023/04/24 10:25:33;;;;;;;9.00;8.10;;;;;;;13.38;85.24;99817.25;5036553;28;20080;-66
2023/04/24 10:28:00;;;;;;;10.38;7.78;;;;;;;13.13;86.71;99834.56;5034340;28;20523;-65
2023/04/24 10:30:28;;;;;;;10.00;7.70;;;;;;;13.21;86.99;99829.84;5037013;28;20072;-70
2023/04/24 10:32:54;;;;;;;9.57;7.63;;;;;;;13.54;85.18;99804.81;5039066;28;20033;-71
2023/04/24 10:35:22;;;;;;;9.95;8.10;;;;;;;13.89;84.75;99828.97;5039568;28;20048;-67
2023/04/24 10:37:56;;;;;;;9.68;7.80;;;;;;;13.48;86.48;99820.16;5041325;28;20049;-66
2023/04/24 10:40:30;;;;;;;7.77;6.83;;;;;;;13.79;84.72;99826.09;5041111;28;20021;-67
2023/04/24 10:42:56;;;;;;;9.68;7.05;;;;;;;14.07;84.74;99823.34;5040289;28;20274;-66
2023/04/24 10:45:23;;;;;;;9.75;7.18;;;;;;;14.19;84.12;99823.22;5040279;28;20022;-66
2023/04/24 10:47:53;;;;;;;9.95;7.40;;;;;;;14.51;83.28;99823.47;5040387;28;20025;-67
2023/04/24 10:50:18;;;;;;;8.48;6.65;;;;;;;14.75;82.82;99807.81;5040752;28;20090;-66
2023/04/24 10:52:45;;;;;;;9.77;7.20;;;;;;;14.32;83.64;99798.53;5039989;28;20393;-67
2023/04/24 10:55:13;;;;;;;12.77;7.28;;;;;;;14.37;84.03;99802.38;5041113;28;20021;-67
2023/04/24 10:57:38;;;;;;;9.13;7.30;;;;;;;14.74;82.45;99799.97;5024156;28;20036;-67
2023/04/24 11:00:13;;;;;;;9.07;6.68;;;;;;;14.57;83.88;99794.59;5043672;28;20598;-67
2023/04/24 11:02:40;;;;;;;8.40;6.38;;;;;;;14.96;82.65;99784.50;5044295;28;20427;-67
2023/04/24 11:05:06;;;;;;;9.88;6.55;;;;;;;15.21;81.25;99773.16;5043893;28;20132;-66
2023/04/24 11:08:10;;;;;;;8.77;6.70;;;;;;;15.01;81.82;99781.06;5042424;28;20538;-71
2023/04/24 11:10:56;;;;;;;10.27;6.82;;;;;;;14.98;82.27;99785.09;5040478;28;20033;-70
2023/04/24 11:13:25;;;;;;;7.78;6.45;;;;;;;15.20;81.57;99787.78;5042820;28;20040;-68